createdAt,value
2022-08-16T00:02:35.854Z,83.08
2022-08-16T00:17:56.379Z,80.83
2022-08-16T00:32:59.383Z,84.23
2022-08-16T00:48:02.823Z,79.17
2022-08-16T01:03:30.149Z,79.18
2022-08-16T01:18:44.979Z,81.19
2022-08-16T01:33:46.528Z,86.06
2022-08-16T01:48:55.864Z,82.75
2022-08-16T02:03:58.567Z,84.17
2022-08-16T02:19:16.014Z,82.63
2022-08-16T02:34:19.809Z,80.28
2022-08-16T02:50:52.113Z,80.50
2022-08-16T03:04:55.927Z,78.58
2022-08-16T03:20:00.205Z,80.76
2022-08-16T03:35:05.173Z,79.99
2022-08-16T03:50:25.662Z,77.85
2022-08-16T04:05:28.092Z,81.20
2022-08-16T04:20:34.036Z,80.40
2022-08-16T04:35:39.520Z,74.94
2022-08-16T04:50:43.715Z,74.50
2022-08-16T05:05:59.614Z,67.15
2022-08-16T05:21:09.627Z,65.03
2022-08-16T05:36:14.546Z,60.89
2022-08-16T05:51:38.822Z,67.77
2022-08-16T06:06:39.973Z,59.11
2022-08-16T06:21:41.739Z,55.94
2022-08-16T06:36:43.353Z,53.46
2022-08-16T06:51:50.958Z,53.47
2022-08-16T07:06:54.380Z,50.42
2022-08-16T07:21:59.830Z,45.65
2022-08-16T07:37:04.412Z,47.29
2022-08-16T07:52:18.643Z,45.85
2022-08-16T08:07:22.005Z,46.51
2022-08-16T08:22:29.054Z,45.26
2022-08-16T08:37:41.729Z,42.91
2022-08-16T08:52:53.893Z,34.83
2022-08-16T09:08:01.595Z,32.51
2022-08-16T09:23:07.541Z,32.89
2022-08-16T09:38:10.021Z,29.93
2022-08-16T09:53:16.679Z,29.72
2022-08-16T10:08:25.420Z,32.68
2022-08-16T10:23:29.709Z,29.63
2022-08-16T10:38:33.035Z,26.48
2022-08-16T10:53:35.772Z,29.66
2022-08-16T11:08:45.463Z,30.53
2022-08-16T11:23:57.845Z,29.13
2022-08-16T11:39:00.811Z,29.65
2022-08-16T11:54:05.160Z,36.90
2022-08-16T12:09:10.471Z,39.56
2022-08-16T12:24:14.010Z,35.95
2022-08-16T12:39:20.501Z,34.69
2022-08-16T12:54:23.586Z,35.80
2022-08-16T13:09:26.790Z,36.03
2022-08-16T13:24:30.439Z,24.31
2022-08-16T13:39:32.895Z,25.42
2022-08-16T13:54:34.703Z,26.47
2022-08-16T14:09:36.921Z,26.92
2022-08-16T14:24:38.910Z,30.07
2022-08-16T14:39:41.468Z,34.07
2022-08-16T14:54:43.928Z,35.55
2022-08-16T15:10:01.064Z,36.33
2022-08-16T15:25:30.147Z,36.97
2022-08-16T15:40:35.378Z,37.75
2022-08-16T15:55:37.507Z,38.34
2022-08-16T16:10:39.891Z,39.78
2022-08-16T16:25:44.670Z,41.77
2022-08-16T16:40:53.812Z,42.19
2022-08-16T16:55:55.986Z,44.01
2022-08-16T17:10:59.751Z,42.99
2022-08-16T17:26:01.500Z,45.15
2022-08-16T17:41:03.878Z,44.53
2022-08-16T17:56:10.438Z,45.25
2022-08-16T18:11:13.427Z,47.61
2022-08-16T18:26:15.138Z,50.31
2022-08-16T18:41:17.165Z,50.60
2022-08-16T18:56:18.681Z,50.63
2022-08-16T19:11:23.248Z,51.78
2022-08-16T19:26:26.340Z,53.27
2022-08-16T19:41:28.144Z,53.28
2022-08-16T19:56:29.787Z,54.46
2022-08-16T20:11:31.674Z,54.79
2022-08-16T20:26:34.808Z,54.41
2022-08-16T20:41:36.427Z,53.75
2022-08-16T20:56:38.044Z,54.90
2022-08-16T21:11:40.776Z,58.82
2022-08-16T21:26:47.386Z,58.81
2022-08-16T21:41:57.904Z,57.88
2022-08-16T21:56:59.945Z,61.79
2022-08-16T22:16:07.854Z,59.06
2022-08-16T22:31:10.817Z,59.79
2022-08-16T22:46:12.409Z,57.34
2022-08-16T23:01:14.588Z,60.52
2022-08-16T23:16:16.321Z,59.75
2022-08-16T23:31:18.070Z,60.60
2022-08-16T23:46:19.768Z,58.79
